sensor_id;sensor_type;location;lat;lon;timestamp;P1;durP1;ratioP1;P2;durP2;ratioP2
50651;SDS011;61429;52.086;5.240;2022-12-29T06:26:03;10.6;;;3.1;;
50651;SDS011;61429;52.086;5.240;2022-12-29T06:27:40;13.1;;;3.2;;
50651;SDS011;61429;52.086;5.240;2022-12-29T06:30:53;10.1;;;2.9;;
50651;SDS011;61429;52.086;5.240;2022-12-29T06:32:29;11.2;;;2.6;;
50651;SDS011;61429;52.086;5.240;2022-12-29T06:34:07;10.0;;;2.8;;
50651;SDS011;61429;52.086;5.240;2022-12-29T06:35:43;8.81;;;2.8;;
50651;SDS011;61429;52.086;5.240;2022-12-29T06:38:57;10.4;;;2.9;;
50651;SDS011;61429;52.086;5.240;2022-12-29T06:40:33;11.5;;;3.1;;
50651;SDS011;61429;52.086;5.240;2022-12-29T06:42:10;9.6;;;2.8;;
50651;SDS011;61429;52.086;5.240;2022-12-29T06:45:22;11.5;;;3.2;;
50651;SDS011;61429;52.086;5.240;2022-12-29T06:47:01;10.7;;;3.0;;
50651;SDS011;61429;52.086;5.240;2022-12-29T06:48:37;10.0;;;3.1;;
50651;SDS011;61429;52.086;5.240;2022-12-29T06:50:13;8.5;;;2.7;;
50651;SDS011;61429;52.086;5.240;2022-12-29T06:55:05;10.21;;;2.9;;
50651;SDS011;61429;52.086;5.240;2022-12-29T06:58:20;9.81;;;2.8;;
50651;SDS011;61429;52.086;5.240;2022-12-29T06:59:56;9.71;;;3.1;;
50651;SDS011;61429;52.086;5.240;2022-12-29T07:01:33;10.6;;;3.3;;
50651;SDS011;61429;52.086;5.240;2022-12-29T07:03:09;9.4;;;2.8;;
50651;SDS011;61429;52.086;5.240;2022-12-29T07:06:22;11.9;;;3.4;;
50651;SDS011;61429;52.086;5.240;2022-12-29T07:07:59;8.9;;;3.0;;
50651;SDS011;61429;52.086;5.240;2022-12-29T07:09:36;10.3;;;3.1;;
50651;SDS011;61429;52.086;5.240;2022-12-29T07:11:12;9.0;;;3.1;;
50651;SDS011;61429;52.086;5.240;2022-12-29T07:14:26;9.31;;;2.9;;
50651;SDS011;61429;52.086;5.240;2022-12-29T07:16:04;7.2;;;2.31;;
50651;SDS011;61429;52.086;5.240;2022-12-29T07:17:42;9.71;;;2.6;;
50651;SDS011;61429;52.086;5.240;2022-12-29T07:20:55;8.81;;;2.5;;
50651;SDS011;61429;52.086;5.240;2022-12-29T07:22:32;7.7;;;2.1;;
50651;SDS011;61429;52.086;5.240;2022-12-29T07:24:08;7.4;;;2.5;;
50651;SDS011;61429;52.086;5.240;2022-12-29T07:27:22;6.4;;;2.4;;
50651;SDS011;61429;52.086;5.240;2022-12-29T07:28:59;6.0;;;2.4;;
50651;SDS011;61429;52.086;5.240;2022-12-29T07:30:36;7.3;;;2.4;;
50651;SDS011;61429;52.086;5.240;2022-12-29T07:32:14;7.3;;;2.6;;
50651;SDS011;61429;52.086;5.240;2022-12-29T07:35:28;7.2;;;2.6;;
50651;SDS011;61429;52.086;5.240;2022-12-29T07:37:04;8.0;;;2.8;;
50651;SDS011;61429;52.086;5.240;2022-12-29T07:38:41;8.0;;;2.8;;
50651;SDS011;61429;52.086;5.240;2022-12-29T07:41:56;8.6;;;3.0;;
50651;SDS011;61429;52.086;5.240;2022-12-29T07:43:33;7.0;;;2.4;;
50651;SDS011;61429;52.086;5.240;2022-12-29T07:45:10;9.81;;;2.8;;
50651;SDS011;61429;52.086;5.240;2022-12-29T07:46:47;9.81;;;2.8;;
50651;SDS011;61429;52.086;5.240;2022-12-29T07:49:59;7.9;;;2.5;;
50651;SDS011;61429;52.086;5.240;2022-12-29T07:51:37;10.0;;;2.8;;
50651;SDS011;61429;52.086;5.240;2022-12-29T07:53:14;11.1;;;3.2;;
50651;SDS011;61429;52.086;5.240;2022-12-29T07:56:27;9.1;;;2.7;;
50651;SDS011;61429;52.086;5.240;2022-12-29T07:58:04;7.8;;;2.9;;
50651;SDS011;61429;52.086;5.240;2022-12-29T07:59:40;8.6;;;2.7;;
50651;SDS011;61429;52.086;5.240;2022-12-29T08:02:53;10.21;;;3.0;;
50651;SDS011;61429;52.086;5.240;2022-12-29T08:04:29;8.71;;;2.8;;
50651;SDS011;61429;52.086;5.240;2022-12-29T08:06:05;12.6;;;3.0;;
50651;SDS011;61429;52.086;5.240;2022-12-29T08:07:44;10.21;;;2.9;;
50651;SDS011;61429;52.086;5.240;2022-12-29T08:10:58;9.31;;;3.0;;
50651;SDS011;61429;52.086;5.240;2022-12-29T08:12:34;9.31;;;2.7;;
50651;SDS011;61429;52.086;5.240;2022-12-29T08:14:10;10.6;;;2.9;;
50651;SDS011;61429;52.086;5.240;2022-12-29T08:17:23;8.71;;;3.0;;
50651;SDS011;61429;52.086;5.240;2022-12-29T08:18:59;9.6;;;3.2;;
50651;SDS011;61429;52.086;5.240;2022-12-29T08:20:36;11.1;;;3.0;;
50651;SDS011;61429;52.086;5.240;2022-12-29T08:23:49;10.4;;;3.0;;
50651;SDS011;61429;52.086;5.240;2022-12-29T08:25:25;10.3;;;3.0;;
50651;SDS011;61429;52.086;5.240;2022-12-29T08:27:01;11.3;;;3.5;;
50651;SDS011;61429;52.086;5.240;2022-12-29T08:28:38;9.5;;;2.9;;
50651;SDS011;61429;52.086;5.240;2022-12-29T08:31:51;11.3;;;3.3;;
50651;SDS011;61429;52.086;5.240;2022-12-29T08:33:27;10.8;;;3.2;;
50651;SDS011;61429;52.086;5.240;2022-12-29T08:35:05;10.8;;;3.4;;
50651;SDS011;61429;52.086;5.240;2022-12-29T08:38:18;11.5;;;3.5;;
50651;SDS011;61429;52.086;5.240;2022-12-29T08:39:55;9.81;;;3.4;;
50651;SDS011;61429;52.086;5.240;2022-12-29T08:41:31;13.1;;;3.2;;
50651;SDS011;61429;52.086;5.240;2022-12-29T08:44:44;12.0;;;3.6;;
50651;SDS011;61429;52.086;5.240;2022-12-29T08:46:20;11.0;;;3.4;;
50651;SDS011;61429;52.086;5.240;2022-12-29T08:47:57;9.5;;;3.1;;
50651;SDS011;61429;52.086;5.240;2022-12-29T08:49:33;9.31;;;3.1;;
50651;SDS011;61429;52.086;5.240;2022-12-29T08:52:46;11.7;;;3.8;;
50651;SDS011;61429;52.086;5.240;2022-12-29T08:54:22;8.4;;;3.0;;
50651;SDS011;61429;52.086;5.240;2022-12-29T08:55:59;11.3;;;3.3;;
50651;SDS011;61429;52.086;5.240;2022-12-29T08:59:12;9.31;;;3.2;;
50651;SDS011;61429;52.086;5.240;2022-12-29T09:00:51;12.7;;;3.5;;
50651;SDS011;61429;52.086;5.240;2022-12-29T09:02:28;10.3;;;3.2;;
50651;SDS011;61429;52.086;5.240;2022-12-29T09:05:40;10.7;;;3.2;;
50651;SDS011;61429;52.086;5.240;2022-12-29T09:07:16;11.8;;;3.6;;
50651;SDS011;61429;52.086;5.240;2022-12-29T09:08:53;10.5;;;3.1;;
50651;SDS011;61429;52.086;5.240;2022-12-29T09:10:30;9.6;;;3.0;;
50651;SDS011;61429;52.086;5.240;2022-12-29T09:13:43;10.6;;;3.2;;
50651;SDS011;61429;52.086;5.240;2022-12-29T09:15:20;10.0;;;3.0;;
50651;SDS011;61429;52.086;5.240;2022-12-29T09:20:10;11.4;;;3.5;;
50651;SDS011;61429;52.086;5.240;2022-12-29T09:21:47;10.8;;;3.3;;
50651;SDS011;61429;52.086;5.240;2022-12-29T09:23:23;11.1;;;3.2;;
50651;SDS011;61429;52.086;5.240;2022-12-29T09:26:36;10.8;;;3.0;;
50651;SDS011;61429;52.086;5.240;2022-12-29T09:28:13;11.8;;;3.3;;
50651;SDS011;61429;52.086;5.240;2022-12-29T09:29:49;11.0;;;3.1;;
50651;SDS011;61429;52.086;5.240;2022-12-29T09:31:25;12.7;;;3.2;;
50651;SDS011;61429;52.086;5.240;2022-12-29T09:34:39;10.5;;;3.3;;
50651;SDS011;61429;52.086;5.240;2022-12-29T09:36:16;7.1;;;2.5;;
50651;SDS011;61429;52.086;5.240;2022-12-29T09:37:53;8.9;;;3.0;;
50651;SDS011;61429;52.086;5.240;2022-12-29T09:41:06;8.1;;;2.8;;
50651;SDS011;61429;52.086;5.240;2022-12-29T09:42:53;8.71;;;3.0;;
50651;SDS011;61429;52.086;5.240;2022-12-29T09:44:47;10.3;;;3.0;;
50651;SDS011;61429;52.086;5.240;2022-12-29T09:46:37;10.3;;;2.8;;
50651;SDS011;61429;52.086;5.240;2022-12-29T09:48:17;10.5;;;2.9;;
50651;SDS011;61429;52.086;5.240;2022-12-29T09:51:42;9.21;;;2.8;;
50651;SDS011;61429;52.086;5.240;2022-12-29T09:53:24;11.0;;;3.2;;
50651;SDS011;61429;52.086;5.240;2022-12-29T09:55:08;10.1;;;3.1;;
50651;SDS011;61429;52.086;5.240;2022-12-29T09:56:49;9.5;;;3.1;;
50651;SDS011;61429;52.086;5.240;2022-12-29T10:00:13;8.71;;;2.8;;
50651;SDS011;61429;52.086;5.240;2022-12-29T10:01:53;7.9;;;2.7;;
50651;SDS011;61429;52.086;5.240;2022-12-29T10:03:39;8.6;;;2.8;;
50651;SDS011;61429;52.086;5.240;2022-12-29T10:05:27;7.5;;;2.7;;
50651;SDS011;61429;52.086;5.240;2022-12-29T10:07:13;5.3;;;2.6;;
50651;SDS011;61429;52.086;5.240;2022-12-29T10:09:01;8.31;;;2.9;;
50651;SDS011;61429;52.086;5.240;2022-12-29T10:12:31;8.9;;;2.7;;
50651;SDS011;61429;52.086;5.240;2022-12-29T10:14:29;7.0;;;2.6;;
50651;SDS011;61429;52.086;5.240;2022-12-29T10:16:18;7.1;;;3.0;;
50651;SDS011;61429;52.086;5.240;2022-12-29T10:18:03;7.7;;;2.5;;
50651;SDS011;61429;52.086;5.240;2022-12-29T10:19:58;6.5;;;2.4;;
50651;SDS011;61429;52.086;5.240;2022-12-29T10:21:57;7.1;;;2.21;;
50651;SDS011;61429;52.086;5.240;2022-12-29T10:23:46;6.5;;;2.8;;
50651;SDS011;61429;52.086;5.240;2022-12-29T10:27:11;7.2;;;2.31;;
50651;SDS011;61429;52.086;5.240;2022-12-29T10:28:50;8.81;;;2.31;;
50651;SDS011;61429;52.086;5.240;2022-12-29T10:30:31;7.1;;;2.21;;
50651;SDS011;61429;52.086;5.240;2022-12-29T10:32:13;7.5;;;2.31;;
50651;SDS011;61429;52.086;5.240;2022-12-29T10:34:07;6.9;;;2.21;;
50651;SDS011;61429;52.086;5.240;2022-12-29T10:39:19;8.81;;;2.6;;
50651;SDS011;61429;52.086;5.240;2022-12-29T10:41:06;8.2;;;2.6;;
50651;SDS011;61429;52.086;5.240;2022-12-29T10:42:51;8.4;;;3.0;;
50651;SDS011;61429;52.086;5.240;2022-12-29T10:46:09;10.8;;;3.3;;
50651;SDS011;61429;52.086;5.240;2022-12-29T10:47:53;12.1;;;3.5;;
50651;SDS011;61429;52.086;5.240;2022-12-29T10:51:20;11.4;;;3.8;;
50651;SDS011;61429;52.086;5.240;2022-12-29T10:53:02;11.1;;;3.7;;
50651;SDS011;61429;52.086;5.240;2022-12-29T10:56:29;11.3;;;3.7;;
50651;SDS011;61429;52.086;5.240;2022-12-29T10:58:11;15.2;;;4.41;;
50651;SDS011;61429;52.086;5.240;2022-12-29T10:59:50;13.1;;;4.41;;
50651;SDS011;61429;52.086;5.240;2022-12-29T11:01:28;13.3;;;4.5;;
50651;SDS011;61429;52.086;5.240;2022-12-29T11:05:23;15.3;;;4.2;;
50651;SDS011;61429;52.086;5.240;2022-12-29T11:07:08;16.61;;;4.7;;
50651;SDS011;61429;52.086;5.240;2022-12-29T11:08:47;13.3;;;4.5;;
50651;SDS011;61429;52.086;5.240;2022-12-29T11:10:34;13.2;;;4.8;;
50651;SDS011;61429;52.086;5.240;2022-12-29T11:12:18;16.0;;;4.41;;
50651;SDS011;61429;52.086;5.240;2022-12-29T11:13:57;14.9;;;4.61;;
50651;SDS011;61429;52.086;5.240;2022-12-29T11:17:17;14.0;;;4.5;;
50651;SDS011;61429;52.086;5.240;2022-12-29T11:18:53;17.11;;;4.61;;
50651;SDS011;61429;52.086;5.240;2022-12-29T11:20:31;16.9;;;4.61;;
50651;SDS011;61429;52.086;5.240;2022-12-29T11:23:57;17.0;;;4.5;;
50651;SDS011;61429;52.086;5.240;2022-12-29T11:25:34;15.9;;;4.7;;
50651;SDS011;61429;52.086;5.240;2022-12-29T11:30:23;17.8;;;4.91;;
50651;SDS011;61429;52.086;5.240;2022-12-29T11:32:10;16.4;;;4.7;;
50651;SDS011;61429;52.086;5.240;2022-12-29T11:33:48;16.3;;;4.8;;
50651;SDS011;61429;52.086;5.240;2022-12-29T11:35:33;17.8;;;4.7;;
50651;SDS011;61429;52.086;5.240;2022-12-29T11:37:13;14.4;;;4.61;;
50651;SDS011;61429;52.086;5.240;2022-12-29T11:40:32;15.0;;;4.3;;
50651;SDS011;61429;52.086;5.240;2022-12-29T11:42:17;13.2;;;4.41;;
50651;SDS011;61429;52.086;5.240;2022-12-29T11:43:56;15.2;;;4.5;;
50651;SDS011;61429;52.086;5.240;2022-12-29T11:45:35;16.4;;;4.7;;
50651;SDS011;61429;52.086;5.240;2022-12-29T11:49:00;17.3;;;4.8;;
50651;SDS011;61429;52.086;5.240;2022-12-29T11:50:39;13.2;;;4.5;;
50651;SDS011;61429;52.086;5.240;2022-12-29T11:52:20;15.9;;;4.7;;
50651;SDS011;61429;52.086;5.240;2022-12-29T11:53:59;16.8;;;5.0;;
50651;SDS011;61429;52.086;5.240;2022-12-29T11:55:39;17.8;;;4.91;;
50651;SDS011;61429;52.086;5.240;2022-12-29T11:58:56;15.5;;;4.8;;
50651;SDS011;61429;52.086;5.240;2022-12-29T12:00:34;18.11;;;5.4;;
50651;SDS011;61429;52.086;5.240;2022-12-29T12:02:24;18.7;;;5.11;;
50651;SDS011;61429;52.086;5.240;2022-12-29T12:04:54;15.3;;;4.91;;
50651;SDS011;61429;52.086;5.240;2022-12-29T12:06:40;15.1;;;4.8;;
50651;SDS011;61429;52.086;5.240;2022-12-29T12:08:34;14.4;;;4.7;;
50651;SDS011;61429;52.086;5.240;2022-12-29T12:11:57;16.9;;;4.91;;
50651;SDS011;61429;52.086;5.240;2022-12-29T12:13:39;19.0;;;5.0;;
50651;SDS011;61429;52.086;5.240;2022-12-29T12:15:27;16.2;;;4.8;;
50651;SDS011;61429;52.086;5.240;2022-12-29T12:17:09;18.61;;;5.2;;
50651;SDS011;61429;52.086;5.240;2022-12-29T12:18:51;17.5;;;4.8;;
50651;SDS011;61429;52.086;5.240;2022-12-29T12:22:19;16.4;;;4.91;;
50651;SDS011;61429;52.086;5.240;2022-12-29T12:24:11;16.8;;;5.11;;
50651;SDS011;61429;52.086;5.240;2022-12-29T12:26:14;14.4;;;4.7;;
50651;SDS011;61429;52.086;5.240;2022-12-29T12:27:56;13.5;;;4.5;;
50651;SDS011;61429;52.086;5.240;2022-12-29T12:29:38;17.3;;;5.4;;
50651;SDS011;61429;52.086;5.240;2022-12-29T12:31:26;18.91;;;5.11;;
50651;SDS011;61429;52.086;5.240;2022-12-29T12:35:06;19.11;;;4.91;;
50651;SDS011;61429;52.086;5.240;2022-12-29T12:36:53;15.6;;;4.5;;
50651;SDS011;61429;52.086;5.240;2022-12-29T12:38:43;18.91;;;4.7;;
50651;SDS011;61429;52.086;5.240;2022-12-29T12:40:34;16.61;;;4.8;;
50651;SDS011;61429;52.086;5.240;2022-12-29T12:44:12;13.7;;;4.1;;
50651;SDS011;61429;52.086;5.240;2022-12-29T12:46:02;15.9;;;4.91;;
50651;SDS011;61429;52.086;5.240;2022-12-29T12:49:57;17.0;;;4.61;;
50651;SDS011;61429;52.086;5.240;2022-12-29T12:52:15;13.1;;;4.7;;
50651;SDS011;61429;52.086;5.240;2022-12-29T12:56:10;15.5;;;5.11;;
50651;SDS011;61429;52.086;5.240;2022-12-29T12:58:52;16.2;;;4.7;;
50651;SDS011;61429;52.086;5.240;2022-12-29T13:00:37;12.5;;;3.9;;
50651;SDS011;61429;52.086;5.240;2022-12-29T13:04:22;14.3;;;4.2;;
50651;SDS011;61429;52.086;5.240;2022-12-29T13:06:42;14.5;;;4.3;;
50651;SDS011;61429;52.086;5.240;2022-12-29T13:08:38;11.5;;;4.1;;
50651;SDS011;61429;52.086;5.240;2022-12-29T13:10:40;13.4;;;4.1;;
50651;SDS011;61429;52.086;5.240;2022-12-29T13:12:20;16.8;;;4.61;;
50651;SDS011;61429;52.086;5.240;2022-12-29T13:14:16;14.1;;;4.61;;
50651;SDS011;61429;52.086;5.240;2022-12-29T13:16:05;11.5;;;3.9;;
50651;SDS011;61429;52.086;5.240;2022-12-29T13:17:53;12.0;;;3.9;;
50651;SDS011;61429;52.086;5.240;2022-12-29T13:19:40;14.4;;;4.5;;
50651;SDS011;61429;52.086;5.240;2022-12-29T13:25:10;14.7;;;4.61;;
50651;SDS011;61429;52.086;5.240;2022-12-29T13:27:04;16.9;;;4.7;;
50651;SDS011;61429;52.086;5.240;2022-12-29T13:28:52;13.6;;;4.2;;
50651;SDS011;61429;52.086;5.240;2022-12-29T13:30:37;14.9;;;4.3;;
50651;SDS011;61429;52.086;5.240;2022-12-29T13:32:23;16.5;;;4.61;;
50651;SDS011;61429;52.086;5.240;2022-12-29T13:34:13;13.9;;;4.7;;
50651;SDS011;61429;52.086;5.240;2022-12-29T13:37:46;12.9;;;4.5;;
50651;SDS011;61429;52.086;5.240;2022-12-29T13:39:27;13.8;;;4.61;;
50651;SDS011;61429;52.086;5.240;2022-12-29T13:41:11;14.1;;;5.11;;
50651;SDS011;61429;52.086;5.240;2022-12-29T13:42:54;15.4;;;4.5;;
50651;SDS011;61429;52.086;5.240;2022-12-29T13:44:33;12.2;;;4.2;;
50651;SDS011;61429;52.086;5.240;2022-12-29T13:47:59;16.3;;;4.41;;
50651;SDS011;61429;52.086;5.240;2022-12-29T13:49:42;15.6;;;4.7;;
50651;SDS011;61429;52.086;5.240;2022-12-29T13:51:20;14.5;;;5.3;;
50651;SDS011;61429;52.086;5.240;2022-12-29T13:53:00;13.8;;;4.91;;
50651;SDS011;61429;52.086;5.240;2022-12-29T13:56:37;15.6;;;4.91;;
50651;SDS011;61429;52.086;5.240;2022-12-29T13:58:19;11.8;;;3.9;;
50651;SDS011;61429;52.086;5.240;2022-12-29T14:00:11;12.7;;;3.7;;
50651;SDS011;61429;52.086;5.240;2022-12-29T14:01:53;12.8;;;3.8;;
50651;SDS011;61429;52.086;5.240;2022-12-29T14:03:51;10.9;;;3.8;;
50651;SDS011;61429;52.086;5.240;2022-12-29T14:05:30;7.5;;;3.1;;
50651;SDS011;61429;52.086;5.240;2022-12-29T14:08:54;11.0;;;3.9;;
50651;SDS011;61429;52.086;5.240;2022-12-29T14:10:34;9.81;;;3.3;;
50651;SDS011;61429;52.086;5.240;2022-12-29T14:12:20;12.7;;;3.3;;
50651;SDS011;61429;52.086;5.240;2022-12-29T14:14:11;8.1;;;2.7;;
50651;SDS011;61429;52.086;5.240;2022-12-29T14:15:55;6.1;;;2.21;;
50651;SDS011;61429;52.086;5.240;2022-12-29T14:19:13;6.6;;;3.0;;
50651;SDS011;61429;52.086;5.240;2022-12-29T14:20:54;4.61;;;2.21;;
50651;SDS011;61429;52.086;5.240;2022-12-29T14:22:34;4.61;;;2.21;;
50651;SDS011;61429;52.086;5.240;2022-12-29T14:24:26;7.0;;;2.31;;
50651;SDS011;61429;52.086;5.240;2022-12-29T14:26:37;7.5;;;2.4;;
50651;SDS011;61429;52.086;5.240;2022-12-29T14:29:59;5.2;;;1.9;;
50651;SDS011;61429;52.086;5.240;2022-12-29T14:31:37;4.91;;;1.9;;
50651;SDS011;61429;52.086;5.240;2022-12-29T14:33:14;5.0;;;1.8;;
50651;SDS011;61429;52.086;5.240;2022-12-29T14:34:51;5.3;;;1.9;;
50651;SDS011;61429;52.086;5.240;2022-12-29T14:38:19;4.91;;;2.1;;
50651;SDS011;61429;52.086;5.240;2022-12-29T14:40:05;7.1;;;2.31;;
50651;SDS011;61429;52.086;5.240;2022-12-29T14:41:59;6.2;;;2.4;;
50651;SDS011;61429;52.086;5.240;2022-12-29T14:43:38;5.8;;;2.4;;
50651;SDS011;61429;52.086;5.240;2022-12-29T14:45:25;5.4;;;2.21;;
50651;SDS011;61429;52.086;5.240;2022-12-29T14:48:43;4.8;;;2.21;;
50651;SDS011;61429;52.086;5.240;2022-12-29T14:50:21;6.3;;;2.5;;
50651;SDS011;61429;52.086;5.240;2022-12-29T14:52:05;6.9;;;2.31;;
50651;SDS011;61429;52.086;5.240;2022-12-29T14:53:50;6.6;;;2.4;;
50651;SDS011;61429;52.086;5.240;2022-12-29T14:57:16;9.81;;;3.0;;
50651;SDS011;61429;52.086;5.240;2022-12-29T14:59:01;6.6;;;2.7;;
50651;SDS011;61429;52.086;5.240;2022-12-29T15:00:40;7.4;;;2.7;;
50651;SDS011;61429;52.086;5.240;2022-12-29T15:02:19;8.81;;;2.8;;
50651;SDS011;61429;52.086;5.240;2022-12-29T15:04:02;8.1;;;2.7;;
50651;SDS011;61429;52.086;5.240;2022-12-29T15:07:29;9.5;;;3.1;;
50651;SDS011;61429;52.086;5.240;2022-12-29T15:09:10;7.2;;;3.1;;
50651;SDS011;61429;52.086;5.240;2022-12-29T15:10:59;9.9;;;3.3;;
50651;SDS011;61429;52.086;5.240;2022-12-29T15:12:41;9.31;;;3.1;;
50651;SDS011;61429;52.086;5.240;2022-12-29T15:14:29;9.21;;;3.1;;
50651;SDS011;61429;52.086;5.240;2022-12-29T15:18:10;8.71;;;3.2;;
50651;SDS011;61429;52.086;5.240;2022-12-29T15:19:59;9.81;;;3.2;;
50651;SDS011;61429;52.086;5.240;2022-12-29T15:21:51;9.71;;;3.0;;
50651;SDS011;61429;52.086;5.240;2022-12-29T15:23:29;9.71;;;3.3;;
50651;SDS011;61429;52.086;5.240;2022-12-29T15:25:12;9.31;;;2.9;;
50651;SDS011;61429;52.086;5.240;2022-12-29T15:28:36;8.4;;;3.1;;
50651;SDS011;61429;52.086;5.240;2022-12-29T15:30:15;9.5;;;3.3;;
50651;SDS011;61429;52.086;5.240;2022-12-29T15:31:52;8.1;;;3.3;;
50651;SDS011;61429;52.086;5.240;2022-12-29T15:33:28;9.1;;;3.2;;
50651;SDS011;61429;52.086;5.240;2022-12-29T15:37:08;12.1;;;3.1;;
50651;SDS011;61429;52.086;5.240;2022-12-29T15:38:45;10.7;;;3.3;;
50651;SDS011;61429;52.086;5.240;2022-12-29T15:40:23;10.1;;;3.1;;
50651;SDS011;61429;52.086;5.240;2022-12-29T15:42:05;8.31;;;2.8;;
50651;SDS011;61429;52.086;5.240;2022-12-29T15:44:00;8.31;;;2.8;;
50651;SDS011;61429;52.086;5.240;2022-12-29T15:45:47;9.1;;;3.3;;
50651;SDS011;61429;52.086;5.240;2022-12-29T15:49:06;10.1;;;3.2;;
50651;SDS011;61429;52.086;5.240;2022-12-29T15:50:44;8.9;;;3.4;;
50651;SDS011;61429;52.086;5.240;2022-12-29T15:52:21;10.8;;;2.8;;
50651;SDS011;61429;52.086;5.240;2022-12-29T15:55:36;8.31;;;2.9;;
50651;SDS011;61429;52.086;5.240;2022-12-29T15:57:17;9.9;;;3.0;;
50651;SDS011;61429;52.086;5.240;2022-12-29T15:58:59;8.5;;;2.8;;
50651;SDS011;61429;52.086;5.240;2022-12-29T16:00:37;8.6;;;2.9;;
50651;SDS011;61429;52.086;5.240;2022-12-29T16:03:51;9.5;;;3.0;;
50651;SDS011;61429;52.086;5.240;2022-12-29T16:05:31;8.81;;;3.0;;
50651;SDS011;61429;52.086;5.240;2022-12-29T16:07:22;10.0;;;3.1;;
50651;SDS011;61429;52.086;5.240;2022-12-29T16:09:03;8.71;;;3.3;;
50651;SDS011;61429;52.086;5.240;2022-12-29T16:12:20;7.6;;;2.8;;
50651;SDS011;61429;52.086;5.240;2022-12-29T16:13:59;10.3;;;3.6;;
50651;SDS011;61429;52.086;5.240;2022-12-29T16:15:37;8.71;;;3.4;;
50651;SDS011;61429;52.086;5.240;2022-12-29T16:17:15;8.2;;;3.1;;
50651;SDS011;61429;52.086;5.240;2022-12-29T16:20:34;8.1;;;3.1;;
50651;SDS011;61429;52.086;5.240;2022-12-29T16:22:17;8.81;;;2.7;;
50651;SDS011;61429;52.086;5.240;2022-12-29T16:24:02;7.5;;;2.8;;
50651;SDS011;61429;52.086;5.240;2022-12-29T16:25:43;8.31;;;2.8;;
50651;SDS011;61429;52.086;5.240;2022-12-29T16:29:01;8.4;;;2.9;;
50651;SDS011;61429;52.086;5.240;2022-12-29T16:30:43;6.8;;;2.4;;
50651;SDS011;61429;52.086;5.240;2022-12-29T16:32:22;8.2;;;2.7;;
50651;SDS011;61429;52.086;5.240;2022-12-29T16:34:10;7.7;;;2.6;;
50651;SDS011;61429;52.086;5.240;2022-12-29T16:37:27;7.3;;;2.8;;
50651;SDS011;61429;52.086;5.240;2022-12-29T16:39:37;6.4;;;2.6;;
50651;SDS011;61429;52.086;5.240;2022-12-29T16:41:27;6.8;;;2.4;;
50651;SDS011;61429;52.086;5.240;2022-12-29T16:43:18;11.6;;;2.8;;
50651;SDS011;61429;52.086;5.240;2022-12-29T16:45:00;9.21;;;2.7;;
50651;SDS011;61429;52.086;5.240;2022-12-29T16:47:18;7.2;;;2.4;;
50651;SDS011;61429;52.086;5.240;2022-12-29T16:48:56;7.0;;;2.4;;
50651;SDS011;61429;52.086;5.240;2022-12-29T16:52:13;9.81;;;2.8;;
50651;SDS011;61429;52.086;5.240;2022-12-29T16:53:55;7.6;;;2.8;;
50651;SDS011;61429;52.086;5.240;2022-12-29T16:55:32;6.8;;;2.6;;
50651;SDS011;61429;52.086;5.240;2022-12-29T16:57:09;8.71;;;2.8;;
50651;SDS011;61429;52.086;5.240;2022-12-29T17:00:26;10.0;;;3.3;;
50651;SDS011;61429;52.086;5.240;2022-12-29T17:02:13;8.2;;;3.1;;
50651;SDS011;61429;52.086;5.240;2022-12-29T17:03:52;7.7;;;2.7;;
50651;SDS011;61429;52.086;5.240;2022-12-29T17:05:33;8.2;;;2.8;;
50651;SDS011;61429;52.086;5.240;2022-12-29T17:08:53;10.5;;;3.3;;
50651;SDS011;61429;52.086;5.240;2022-12-29T17:10:30;8.81;;;3.1;;
50651;SDS011;61429;52.086;5.240;2022-12-29T17:12:09;9.6;;;3.0;;
50651;SDS011;61429;52.086;5.240;2022-12-29T17:13:51;10.3;;;3.6;;
50651;SDS011;61429;52.086;5.240;2022-12-29T17:17:10;6.9;;;3.0;;
50651;SDS011;61429;52.086;5.240;2022-12-29T17:18:52;8.81;;;3.1;;
50651;SDS011;61429;52.086;5.240;2022-12-29T17:20:29;7.7;;;3.3;;
50651;SDS011;61429;52.086;5.240;2022-12-29T17:22:09;13.7;;;3.3;;
50651;SDS011;61429;52.086;5.240;2022-12-29T17:25:25;10.6;;;2.8;;
50651;SDS011;61429;52.086;5.240;2022-12-29T17:27:09;11.7;;;3.2;;
50651;SDS011;61429;52.086;5.240;2022-12-29T17:29:01;12.7;;;3.1;;
50651;SDS011;61429;52.086;5.240;2022-12-29T17:30:37;10.0;;;3.8;;
50651;SDS011;61429;52.086;5.240;2022-12-29T17:33:52;11.4;;;3.5;;
50651;SDS011;61429;52.086;5.240;2022-12-29T17:35:29;9.0;;;3.2;;
50651;SDS011;61429;52.086;5.240;2022-12-29T17:37:09;8.6;;;3.2;;
50651;SDS011;61429;52.086;5.240;2022-12-29T17:39:05;10.1;;;3.4;;
50651;SDS011;61429;52.086;5.240;2022-12-29T17:42:18;10.6;;;3.4;;
50651;SDS011;61429;52.086;5.240;2022-12-29T17:43:55;12.8;;;3.8;;
50651;SDS011;61429;52.086;5.240;2022-12-29T17:45:37;11.7;;;3.6;;
50651;SDS011;61429;52.086;5.240;2022-12-29T17:47:15;9.9;;;3.1;;
50651;SDS011;61429;52.086;5.240;2022-12-29T17:50:28;12.0;;;3.2;;
50651;SDS011;61429;52.086;5.240;2022-12-29T17:52:08;9.1;;;3.3;;
50651;SDS011;61429;52.086;5.240;2022-12-29T17:53:46;9.81;;;3.1;;
50651;SDS011;61429;52.086;5.240;2022-12-29T17:57:00;9.1;;;3.0;;
50651;SDS011;61429;52.086;5.240;2022-12-29T17:58:36;10.5;;;3.4;;
50651;SDS011;61429;52.086;5.240;2022-12-29T18:00:14;11.2;;;3.5;;
50651;SDS011;61429;52.086;5.240;2022-12-29T18:01:52;12.1;;;3.6;;
50651;SDS011;61429;52.086;5.240;2022-12-29T18:05:12;10.3;;;3.2;;
50651;SDS011;61429;52.086;5.240;2022-12-29T18:06:53;10.1;;;3.0;;
50651;SDS011;61429;52.086;5.240;2022-12-29T18:08:29;9.71;;;3.7;;
50651;SDS011;61429;52.086;5.240;2022-12-29T18:10:05;9.6;;;3.2;;
50651;SDS011;61429;52.086;5.240;2022-12-29T18:13:21;9.6;;;3.2;;
50651;SDS011;61429;52.086;5.240;2022-12-29T18:15:00;10.21;;;3.3;;
50651;SDS011;61429;52.086;5.240;2022-12-29T18:16:37;9.81;;;3.5;;
50651;SDS011;61429;52.086;5.240;2022-12-29T18:19:53;9.1;;;3.1;;
50651;SDS011;61429;52.086;5.240;2022-12-29T18:21:29;10.0;;;3.6;;
50651;SDS011;61429;52.086;5.240;2022-12-29T18:23:06;12.4;;;3.8;;
50651;SDS011;61429;52.086;5.240;2022-12-29T18:24:54;10.5;;;3.5;;
50651;SDS011;61429;52.086;5.240;2022-12-29T18:28:07;10.4;;;3.3;;
50651;SDS011;61429;52.086;5.240;2022-12-29T18:29:44;15.0;;;3.9;;
50651;SDS011;61429;52.086;5.240;2022-12-29T18:31:22;11.8;;;3.4;;
50651;SDS011;61429;52.086;5.240;2022-12-29T18:34:39;15.0;;;3.8;;
50651;SDS011;61429;52.086;5.240;2022-12-29T18:36:16;11.0;;;3.6;;
50651;SDS011;61429;52.086;5.240;2022-12-29T18:37:55;14.0;;;3.6;;
50651;SDS011;61429;52.086;5.240;2022-12-29T18:39:31;15.4;;;3.7;;
50651;SDS011;61429;52.086;5.240;2022-12-29T18:42:51;14.3;;;3.8;;
50651;SDS011;61429;52.086;5.240;2022-12-29T18:44:27;14.3;;;3.8;;
50651;SDS011;61429;52.086;5.240;2022-12-29T18:46:04;11.6;;;3.5;;
50651;SDS011;61429;52.086;5.240;2022-12-29T18:49:17;14.1;;;3.9;;
50651;SDS011;61429;52.086;5.240;2022-12-29T18:50:53;13.5;;;4.1;;
50651;SDS011;61429;52.086;5.240;2022-12-29T18:52:29;12.0;;;3.7;;
50651;SDS011;61429;52.086;5.240;2022-12-29T18:54:08;12.8;;;3.7;;
50651;SDS011;61429;52.086;5.240;2022-12-29T18:57:31;12.1;;;3.9;;
50651;SDS011;61429;52.086;5.240;2022-12-29T18:59:07;14.3;;;4.3;;
50651;SDS011;61429;52.086;5.240;2022-12-29T19:00:43;13.4;;;4.41;;
50651;SDS011;61429;52.086;5.240;2022-12-29T19:03:57;13.4;;;4.41;;
50651;SDS011;61429;52.086;5.240;2022-12-29T19:05:35;12.8;;;4.41;;
50651;SDS011;61429;52.086;5.240;2022-12-29T19:07:13;12.9;;;4.0;;
50651;SDS011;61429;52.086;5.240;2022-12-29T19:08:49;14.9;;;4.2;;
50651;SDS011;61429;52.086;5.240;2022-12-29T19:12:03;14.2;;;4.0;;
50651;SDS011;61429;52.086;5.240;2022-12-29T19:13:39;12.8;;;4.41;;
50651;SDS011;61429;52.086;5.240;2022-12-29T19:15:19;11.7;;;4.3;;
50651;SDS011;61429;52.086;5.240;2022-12-29T19:18:34;14.4;;;4.3;;
50651;SDS011;61429;52.086;5.240;2022-12-29T19:20:17;13.9;;;4.2;;
50651;SDS011;61429;52.086;5.240;2022-12-29T19:22:03;14.2;;;4.2;;
50651;SDS011;61429;52.086;5.240;2022-12-29T19:23:40;14.2;;;4.1;;
50651;SDS011;61429;52.086;5.240;2022-12-29T19:26:52;15.2;;;4.8;;
50651;SDS011;61429;52.086;5.240;2022-12-29T19:28:28;15.2;;;4.5;;
50651;SDS011;61429;52.086;5.240;2022-12-29T19:30:05;14.3;;;4.8;;
50651;SDS011;61429;52.086;5.240;2022-12-29T19:31:43;14.1;;;4.7;;